ΕΜΥ, Εθνική Μετεωρολογική Υπηρεσία - Δελτία Καιρού, Προγνώσεις

ΑΕΡΟΝΑΥΤΙΛΙΑ

GREEK AIRPORTS CODES

TAF LGMG 290700Z 2909/2918 34010KT 9999 FEW018 SCT020 BKN050 TEMPO 2915/2918 34015G25KT PROB40 TEMPO 2909/2918 5000 RA FEW015 FEW018TCU BKN020 PROB30 TEMPO 2912/2918 4000 TSRA SCT010 FEW018CB BKN020=

EUROPEAN AIRPORTS CODES

LFPO 291230Z 24009KT 4500 -DZ BKN006 09/08 Q1033 TEMPO 2500-DZ=